This is the latest recevied weather packets stored in our database for station/object DL1GRJ-13. If no packets are shown the sender has not sent any weather packets the latest 10 day(s).
| Time | Temp. | Humidity | Pressure | Rain* | Wind** | Luminosity | Snow |
|---|---|---|---|---|---|---|---|
| 1777609844 | 2.22° C | 40% | 1025.3 hPa | - | - | - | - |
| 1777608044 | 2.78° C | 38% | 1025.2 hPa | - | - | - | - |
| 1777606243 | 2.78° C | 37% | 1025.3 hPa | - | - | - | - |
| 1777604443 | 2.78° C | 37% | 1025.4 hPa | - | - | - | - |
| 1777602643 | 2.78° C | 36% | 1025.5 hPa | - | - | - | - |
| 1777600843 | 2.22° C | 38% | 1025.4 hPa | - | - | - | - |
| 1777599043 | 2.78° C | 35% | 1025.4 hPa | - | - | - | - |
| 1777597243 | 3.33° C | 34% | 1025.2 hPa | - | - | - | - |
| 1777595443 | 3.33° C | 34% | 1025.3 hPa | - | - | - | - |
| 1777593643 | 3.89° C | 32% | 1025.4 hPa | - | - | - | - |
| 1777591842 | 5° C | 31% | 1025.4 hPa | - | - | - | - |
| 1777590042 | 4.44° C | 35% | 1025.5 hPa | - | - | - | - |
| 1777588242 | 5° C | 33% | 1025.4 hPa | - | - | - | - |
| 1777586442 | 5.56° C | 33% | 1025.4 hPa | - | - | - | - |
| 1777584642 | 5.56° C | 34% | 1025.5 hPa | - | - | - | - |
| 1777582842 | 6.11° C | 32% | 1025.4 hPa | - | - | - | - |
| 1777581042 | 7.22° C | 31% | 1025.4 hPa | - | - | - | - |
| 1777579242 | 7.78° C | 29% | 1025.4 hPa | - | - | - | - |
| 1777577442 | 8.89° C | 27% | 1025.1 hPa | - | - | - | - |
| 1777575641 | 10° C | 26% | 1024.8 hPa | - | - | - | - |
| 1777573841 | 11.11° C | 24% | 1024.5 hPa | - | - | - | - |
| 1777572041 | 15° C | 21% | 1024.3 hPa | - | - | - | - |
| 1777570241 | 17.22° C | 18% | 1023.9 hPa | - | - | - | - |
| 1777568441 | 17.22° C | 18% | 1023.8 hPa | - | - | - | - |
| 1777566641 | 17.78° C | 16% | 1023.7 hPa | - | - | - | - |
* Rain since midnight (hover to see other rain measurements)
** Current wind speed in m/s (hover to see current wind gust speed)